sensor_id;sensor_type;location;lat;lon;timestamp;P1;durP1;ratioP1;P2;durP2;ratioP2
44062;SDS011;29727;47.606;19.130;2022-08-11T00:01:21;70.55;;;64.25;;
44062;SDS011;29727;47.606;19.130;2022-08-11T00:03:55;67.95;;;61.35;;
44062;SDS011;29727;47.606;19.130;2022-08-11T00:06:26;79.32;;;71.55;;
44062;SDS011;29727;47.606;19.130;2022-08-11T00:09:09;70.55;;;64.90;;
44062;SDS011;29727;47.606;19.130;2022-08-11T00:11:38;67.65;;;62.58;;
44062;SDS011;29727;47.606;19.130;2022-08-11T00:14:12;66.75;;;61.47;;
44062;SDS011;29727;47.606;19.130;2022-08-11T00:16:39;73.65;;;67.38;;
44062;SDS011;29727;47.606;19.130;2022-08-11T00:19:06;77.20;;;69.82;;
44062;SDS011;29727;47.606;19.130;2022-08-11T00:21:37;74.00;;;68.07;;
44062;SDS011;29727;47.606;19.130;2022-08-11T00:24:07;70.65;;;64.03;;
44062;SDS011;29727;47.606;19.130;2022-08-11T00:26:33;71.60;;;64.38;;
44062;SDS011;29727;47.606;19.130;2022-08-11T00:29:07;66.97;;;61.65;;
44062;SDS011;29727;47.606;19.130;2022-08-11T00:31:33;69.03;;;63.88;;
44062;SDS011;29727;47.606;19.130;2022-08-11T00:34:00;70.43;;;65.18;;
44062;SDS011;29727;47.606;19.130;2022-08-11T00:36:36;74.22;;;68.35;;
44062;SDS011;29727;47.606;19.130;2022-08-11T00:39:06;69.47;;;62.13;;
44062;SDS011;29727;47.606;19.130;2022-08-11T00:50:17;74.53;;;68.13;;
44062;SDS011;29727;47.606;19.130;2022-08-11T01:21:13;70.75;;;64.57;;
44062;SDS011;29727;47.606;19.130;2022-08-11T01:38:39;67.05;;;60.17;;
44062;SDS011;29727;47.606;19.130;2022-08-11T01:41:25;61.20;;;56.17;;
44062;SDS011;29727;47.606;19.130;2022-08-11T02:01:37;62.67;;;51.28;;
44062;SDS011;29727;47.606;19.130;2022-08-11T02:12:12;64.13;;;57.00;;
44062;SDS011;29727;47.606;19.130;2022-08-11T02:14:51;61.58;;;56.47;;
44062;SDS011;29727;47.606;19.130;2022-08-11T02:20:18;62.38;;;55.63;;
44062;SDS011;29727;47.606;19.130;2022-08-11T02:31:44;71.72;;;65.95;;
44062;SDS011;29727;47.606;19.130;2022-08-11T02:47:47;75.90;;;68.72;;
44062;SDS011;29727;47.606;19.130;2022-08-11T03:04:26;75.07;;;67.82;;
44062;SDS011;29727;47.606;19.130;2022-08-11T03:07:23;69.05;;;63.25;;
44062;SDS011;29727;47.606;19.130;2022-08-11T03:09:54;71.13;;;64.25;;
44062;SDS011;29727;47.606;19.130;2022-08-11T03:12:30;68.35;;;61.60;;
44062;SDS011;29727;47.606;19.130;2022-08-11T03:15:27;66.07;;;60.53;;
44062;SDS011;29727;47.606;19.130;2022-08-11T03:18:41;64.75;;;58.05;;
44062;SDS011;29727;47.606;19.130;2022-08-11T03:21:17;70.97;;;63.80;;
44062;SDS011;29727;47.606;19.130;2022-08-11T03:29:10;68.20;;;62.15;;
44062;SDS011;29727;47.606;19.130;2022-08-11T03:32:00;69.10;;;62.17;;
44062;SDS011;29727;47.606;19.130;2022-08-11T03:34:34;72.57;;;65.65;;
44062;SDS011;29727;47.606;19.130;2022-08-11T03:43:02;77.40;;;69.95;;
44062;SDS011;29727;47.606;19.130;2022-08-11T03:45:57;74.82;;;68.45;;
44062;SDS011;29727;47.606;19.130;2022-08-11T03:51:24;72.53;;;65.10;;
44062;SDS011;29727;47.606;19.130;2022-08-11T04:25:27;88.38;;;80.57;;
44062;SDS011;29727;47.606;19.130;2022-08-11T04:34:04;86.85;;;79.10;;
44062;SDS011;29727;47.606;19.130;2022-08-11T04:46:05;80.10;;;72.55;;
44062;SDS011;29727;47.606;19.130;2022-08-11T05:12:35;103.88;;;94.55;;
44062;SDS011;29727;47.606;19.130;2022-08-11T05:15:11;109.57;;;100.43;;
44062;SDS011;29727;47.606;19.130;2022-08-11T05:18:19;104.50;;;95.47;;
44062;SDS011;29727;47.606;19.130;2022-08-11T05:21:07;101.93;;;93.10;;
44062;SDS011;29727;47.606;19.130;2022-08-11T05:24:07;96.93;;;88.22;;
44062;SDS011;29727;47.606;19.130;2022-08-11T05:27:02;97.35;;;88.93;;
44062;SDS011;29727;47.606;19.130;2022-08-11T05:30:06;111.72;;;101.35;;
44062;SDS011;29727;47.606;19.130;2022-08-11T05:32:56;96.57;;;88.20;;
44062;SDS011;29727;47.606;19.130;2022-08-11T05:36:25;107.53;;;98.90;;
44062;SDS011;29727;47.606;19.130;2022-08-11T05:39:06;93.28;;;84.78;;
44062;SDS011;29727;47.606;19.130;2022-08-11T05:41:57;98.93;;;90.03;;
44062;SDS011;29727;47.606;19.130;2022-08-11T05:44:43;101.95;;;93.22;;
44062;SDS011;29727;47.606;19.130;2022-08-11T05:47:29;94.85;;;86.35;;
44062;SDS011;29727;47.606;19.130;2022-08-11T05:50:14;97.32;;;88.90;;
44062;SDS011;29727;47.606;19.130;2022-08-11T05:53:01;99.70;;;91.05;;
44062;SDS011;29727;47.606;19.130;2022-08-11T05:55:47;94.15;;;85.70;;
44062;SDS011;29727;47.606;19.130;2022-08-11T05:58:48;105.07;;;95.88;;
44062;SDS011;29727;47.606;19.130;2022-08-11T06:01:31;94.68;;;86.10;;
44062;SDS011;29727;47.606;19.130;2022-08-11T06:03:59;98.55;;;90.00;;
44062;SDS011;29727;47.606;19.130;2022-08-11T06:09:23;104.03;;;95.05;;
44062;SDS011;29727;47.606;19.130;2022-08-11T06:12:07;96.18;;;87.22;;
44062;SDS011;29727;47.606;19.130;2022-08-11T06:14:45;91.80;;;83.60;;
44062;SDS011;29727;47.606;19.130;2022-08-11T06:17:20;96.05;;;87.43;;
44062;SDS011;29727;47.606;19.130;2022-08-11T06:22:30;101.22;;;92.78;;
44062;SDS011;29727;47.606;19.130;2022-08-11T06:24:57;95.32;;;86.75;;
44062;SDS011;29727;47.606;19.130;2022-08-11T06:27:25;98.97;;;90.45;;
44062;SDS011;29727;47.606;19.130;2022-08-11T06:29:54;98.75;;;90.28;;
44062;SDS011;29727;47.606;19.130;2022-08-11T06:32:26;91.05;;;82.90;;
44062;SDS011;29727;47.606;19.130;2022-08-11T06:35:04;96.57;;;88.30;;
44062;SDS011;29727;47.606;19.130;2022-08-11T06:41:00;92.55;;;84.75;;
44062;SDS011;29727;47.606;19.130;2022-08-11T06:43:55;88.40;;;82.03;;
44062;SDS011;29727;47.606;19.130;2022-08-11T06:46:32;93.10;;;84.50;;
44062;SDS011;29727;47.606;19.130;2022-08-11T06:49:03;89.37;;;81.43;;
44062;SDS011;29727;47.606;19.130;2022-08-11T06:51:57;89.55;;;81.90;;
44062;SDS011;29727;47.606;19.130;2022-08-11T06:54:32;93.90;;;85.70;;
44062;SDS011;29727;47.606;19.130;2022-08-11T06:57:00;96.10;;;87.97;;
44062;SDS011;29727;47.606;19.130;2022-08-11T06:59:47;89.07;;;81.60;;
44062;SDS011;29727;47.606;19.130;2022-08-11T07:05:21;88.35;;;80.45;;
44062;SDS011;29727;47.606;19.130;2022-08-11T07:11:02;83.55;;;75.85;;
44062;SDS011;29727;47.606;19.130;2022-08-11T07:13:53;89.13;;;81.25;;
44062;SDS011;29727;47.606;19.130;2022-08-11T07:16:43;82.88;;;75.10;;
44062;SDS011;29727;47.606;19.130;2022-08-11T07:19:13;82.28;;;74.63;;
44062;SDS011;29727;47.606;19.130;2022-08-11T07:22:01;84.07;;;76.15;;
44062;SDS011;29727;47.606;19.130;2022-08-11T07:24:53;88.82;;;80.68;;
44062;SDS011;29727;47.606;19.130;2022-08-11T07:27:59;91.07;;;82.93;;
44062;SDS011;29727;47.606;19.130;2022-08-11T07:30:44;91.50;;;83.50;;
44062;SDS011;29727;47.606;19.130;2022-08-11T07:33:12;97.03;;;90.03;;
44062;SDS011;29727;47.606;19.130;2022-08-11T07:35:50;101.85;;;93.03;;
44062;SDS011;29727;47.606;19.130;2022-08-11T07:38:23;91.80;;;84.03;;
44062;SDS011;29727;47.606;19.130;2022-08-11T07:41:08;93.00;;;84.88;;
44062;SDS011;29727;47.606;19.130;2022-08-11T07:43:36;93.45;;;87.03;;
44062;SDS011;29727;47.606;19.130;2022-08-11T07:46:03;95.45;;;87.13;;
44062;SDS011;29727;47.606;19.130;2022-08-11T07:48:48;89.63;;;82.53;;
44062;SDS011;29727;47.606;19.130;2022-08-11T07:51:34;96.65;;;89.80;;
44062;SDS011;29727;47.606;19.130;2022-08-11T07:54:20;91.60;;;83.85;;
44062;SDS011;29727;47.606;19.130;2022-08-11T07:56:46;94.85;;;86.18;;
44062;SDS011;29727;47.606;19.130;2022-08-11T07:59:13;93.05;;;85.07;;
44062;SDS011;29727;47.606;19.130;2022-08-11T08:01:59;102.65;;;95.13;;
44062;SDS011;29727;47.606;19.130;2022-08-11T08:04:44;97.63;;;89.32;;
44062;SDS011;29727;47.606;19.130;2022-08-11T08:07:29;97.15;;;88.72;;
44062;SDS011;29727;47.606;19.130;2022-08-11T08:10:14;99.40;;;91.70;;
44062;SDS011;29727;47.606;19.130;2022-08-11T08:13:01;98.38;;;90.47;;
44062;SDS011;29727;47.606;19.130;2022-08-11T08:15:47;110.22;;;102.15;;
44062;SDS011;29727;47.606;19.130;2022-08-11T08:18:35;101.55;;;94.75;;
44062;SDS011;29727;47.606;19.130;2022-08-11T08:21:03;101.32;;;92.70;;
44062;SDS011;29727;47.606;19.130;2022-08-11T08:23:36;98.90;;;90.28;;
44062;SDS011;29727;47.606;19.130;2022-08-11T08:26:06;104.25;;;95.15;;
44062;SDS011;29727;47.606;19.130;2022-08-11T08:28:55;103.00;;;94.07;;
44062;SDS011;29727;47.606;19.130;2022-08-11T08:31:42;99.43;;;92.20;;
44062;SDS011;29727;47.606;19.130;2022-08-11T08:34:09;105.93;;;96.68;;
44062;SDS011;29727;47.606;19.130;2022-08-11T08:36:37;109.82;;;100.55;;
44062;SDS011;29727;47.606;19.130;2022-08-11T08:39:06;111.10;;;103.75;;
44062;SDS011;29727;47.606;19.130;2022-08-11T08:41:32;103.43;;;94.82;;
44062;SDS011;29727;47.606;19.130;2022-08-11T08:44:03;116.28;;;107.10;;
44062;SDS011;29727;47.606;19.130;2022-08-11T08:46:36;109.40;;;100.25;;
44062;SDS011;29727;47.606;19.130;2022-08-11T08:49:08;116.20;;;106.95;;
44062;SDS011;29727;47.606;19.130;2022-08-11T08:51:39;111.90;;;104.32;;
44062;SDS011;29727;47.606;19.130;2022-08-11T08:54:11;113.63;;;104.45;;
44062;SDS011;29727;47.606;19.130;2022-08-11T08:56:42;118.63;;;110.85;;
44062;SDS011;29727;47.606;19.130;2022-08-11T08:59:10;103.97;;;95.63;;
44062;SDS011;29727;47.606;19.130;2022-08-11T09:01:41;102.60;;;95.57;;
44062;SDS011;29727;47.606;19.130;2022-08-11T09:04:12;106.00;;;98.60;;
44062;SDS011;29727;47.606;19.130;2022-08-11T09:06:39;119.32;;;110.13;;
44062;SDS011;29727;47.606;19.130;2022-08-11T09:09:07;109.60;;;100.28;;
44062;SDS011;29727;47.606;19.130;2022-08-11T09:11:36;107.35;;;100.25;;
44062;SDS011;29727;47.606;19.130;2022-08-11T09:14:21;103.07;;;96.32;;
44062;SDS011;29727;47.606;19.130;2022-08-11T09:17:16;112.97;;;105.60;;
44062;SDS011;29727;47.606;19.130;2022-08-11T09:19:43;122.13;;;113.53;;
44062;SDS011;29727;47.606;19.130;2022-08-11T09:22:10;113.32;;;105.30;;
44062;SDS011;29727;47.606;19.130;2022-08-11T09:24:55;114.55;;;107.63;;
44062;SDS011;29727;47.606;19.130;2022-08-11T09:27:40;115.00;;;107.68;;
44062;SDS011;29727;47.606;19.130;2022-08-11T09:30:07;115.50;;;108.15;;
44062;SDS011;29727;47.606;19.130;2022-08-11T09:32:35;114.03;;;106.75;;
44062;SDS011;29727;47.606;19.130;2022-08-11T09:35:03;112.80;;;105.35;;
44062;SDS011;29727;47.606;19.130;2022-08-11T09:37:30;108.45;;;101.53;;
44062;SDS011;29727;47.606;19.130;2022-08-11T09:40:16;112.25;;;105.07;;
44062;SDS011;29727;47.606;19.130;2022-08-11T09:42:55;113.32;;;106.22;;
44062;SDS011;29727;47.606;19.130;2022-08-11T09:45:43;109.85;;;102.65;;
44062;SDS011;29727;47.606;19.130;2022-08-11T09:48:15;110.57;;;103.90;;
44062;SDS011;29727;47.606;19.130;2022-08-11T09:50:49;115.20;;;107.70;;
44062;SDS011;29727;47.606;19.130;2022-08-11T09:53:19;112.00;;;102.63;;
44062;SDS011;29727;47.606;19.130;2022-08-11T09:55:45;107.85;;;99.60;;
44062;SDS011;29727;47.606;19.130;2022-08-11T09:58:13;117.00;;;108.65;;
44062;SDS011;29727;47.606;19.130;2022-08-11T10:00:43;112.03;;;104.35;;
44062;SDS011;29727;47.606;19.130;2022-08-11T10:03:12;111.55;;;102.22;;
44062;SDS011;29727;47.606;19.130;2022-08-11T10:05:48;111.78;;;104.28;;
44062;SDS011;29727;47.606;19.130;2022-08-11T10:08:36;110.95;;;103.63;;
44062;SDS011;29727;47.606;19.130;2022-08-11T10:11:04;112.85;;;103.35;;
44062;SDS011;29727;47.606;19.130;2022-08-11T10:13:33;110.80;;;103.38;;
44062;SDS011;29727;47.606;19.130;2022-08-11T10:16:25;109.18;;;101.05;;
44062;SDS011;29727;47.606;19.130;2022-08-11T10:18:54;113.47;;;106.03;;
44062;SDS011;29727;47.606;19.130;2022-08-11T10:24:04;106.35;;;99.40;;
44062;SDS011;29727;47.606;19.130;2022-08-11T10:26:49;109.10;;;101.90;;
44062;SDS011;29727;47.606;19.130;2022-08-11T10:32:09;110.13;;;102.90;;
44062;SDS011;29727;47.606;19.130;2022-08-11T10:34:55;111.05;;;104.00;;
44062;SDS011;29727;47.606;19.130;2022-08-11T10:37:23;107.57;;;100.43;;
44062;SDS011;29727;47.606;19.130;2022-08-11T10:39:50;122.90;;;112.93;;
44062;SDS011;29727;47.606;19.130;2022-08-11T10:42:16;117.38;;;107.50;;
44062;SDS011;29727;47.606;19.130;2022-08-11T10:45:03;113.50;;;106.22;;
44062;SDS011;29727;47.606;19.130;2022-08-11T10:47:51;115.03;;;108.18;;
44062;SDS011;29727;47.606;19.130;2022-08-11T10:50:19;109.53;;;102.57;;
44062;SDS011;29727;47.606;19.130;2022-08-11T10:53:04;101.25;;;95.20;;
44062;SDS011;29727;47.606;19.130;2022-08-11T10:55:50;110.40;;;101.55;;
44062;SDS011;29727;47.606;19.130;2022-08-11T10:58:38;112.40;;;105.07;;
44062;SDS011;29727;47.606;19.130;2022-08-11T11:01:14;99.25;;;92.80;;
44062;SDS011;29727;47.606;19.130;2022-08-11T11:03:53;99.88;;;91.65;;
44062;SDS011;29727;47.606;19.130;2022-08-11T11:06:37;98.88;;;91.88;;
44062;SDS011;29727;47.606;19.130;2022-08-11T11:11:58;105.63;;;98.90;;
44062;SDS011;29727;47.606;19.130;2022-08-11T11:17:46;97.00;;;91.50;;
44062;SDS011;29727;47.606;19.130;2022-08-11T11:36:44;100.88;;;93.63;;
44062;SDS011;29727;47.606;19.130;2022-08-11T11:39:36;101.53;;;93.72;;
44062;SDS011;29727;47.606;19.130;2022-08-11T11:42:04;100.97;;;92.20;;
44062;SDS011;29727;47.606;19.130;2022-08-11T11:44:33;102.55;;;93.53;;
44062;SDS011;29727;47.606;19.130;2022-08-11T11:47:00;97.45;;;91.07;;
44062;SDS011;29727;47.606;19.130;2022-08-11T11:49:27;104.65;;;95.35;;
44062;SDS011;29727;47.606;19.130;2022-08-11T11:51:56;104.57;;;95.53;;
44062;SDS011;29727;47.606;19.130;2022-08-11T11:54:25;100.53;;;92.75;;
44062;SDS011;29727;47.606;19.130;2022-08-11T11:56:55;101.60;;;94.90;;
44062;SDS011;29727;47.606;19.130;2022-08-11T11:59:42;107.13;;;100.35;;
44062;SDS011;29727;47.606;19.130;2022-08-11T12:02:27;94.80;;;89.18;;
44062;SDS011;29727;47.606;19.130;2022-08-11T12:04:53;105.35;;;99.10;;
44062;SDS011;29727;47.606;19.130;2022-08-11T12:07:19;108.22;;;101.40;;
44062;SDS011;29727;47.606;19.130;2022-08-11T12:10:04;105.38;;;98.65;;
44062;SDS011;29727;47.606;19.130;2022-08-11T12:12:32;105.72;;;99.00;;
44062;SDS011;29727;47.606;19.130;2022-08-11T12:15:16;102.63;;;96.53;;
44062;SDS011;29727;47.606;19.130;2022-08-11T12:17:43;107.95;;;101.75;;
44062;SDS011;29727;47.606;19.130;2022-08-11T12:20:15;106.47;;;100.40;;
44062;SDS011;29727;47.606;19.130;2022-08-11T12:22:43;104.05;;;97.90;;
44062;SDS011;29727;47.606;19.130;2022-08-11T12:25:28;107.03;;;101.00;;
44062;SDS011;29727;47.606;19.130;2022-08-11T12:28:12;99.18;;;93.40;;
44062;SDS011;29727;47.606;19.130;2022-08-11T12:30:38;105.18;;;99.13;;
44062;SDS011;29727;47.606;19.130;2022-08-11T12:33:05;106.63;;;100.18;;
44062;SDS011;29727;47.606;19.130;2022-08-11T12:35:32;102.72;;;96.05;;
44062;SDS011;29727;47.606;19.130;2022-08-11T12:38:00;103.55;;;96.72;;
44062;SDS011;29727;47.606;19.130;2022-08-11T12:40:28;98.65;;;92.25;;
44062;SDS011;29727;47.606;19.130;2022-08-11T12:43:14;95.65;;;89.53;;
44062;SDS011;29727;47.606;19.130;2022-08-11T12:46:02;97.13;;;90.90;;
44062;SDS011;29727;47.606;19.130;2022-08-11T12:48:31;97.25;;;91.20;;
44062;SDS011;29727;47.606;19.130;2022-08-11T12:51:22;98.13;;;92.20;;
44062;SDS011;29727;47.606;19.130;2022-08-11T12:54:12;100.43;;;94.28;;
44062;SDS011;29727;47.606;19.130;2022-08-11T12:56:45;104.10;;;97.63;;
44062;SDS011;29727;47.606;19.130;2022-08-11T12:59:32;89.45;;;83.50;;
44062;SDS011;29727;47.606;19.130;2022-08-11T13:02:21;101.20;;;94.82;;
44062;SDS011;29727;47.606;19.130;2022-08-11T13:05:07;105.78;;;99.03;;
44062;SDS011;29727;47.606;19.130;2022-08-11T13:07:36;101.18;;;95.18;;
44062;SDS011;29727;47.606;19.130;2022-08-11T13:10:05;102.88;;;96.32;;
44062;SDS011;29727;47.606;19.130;2022-08-11T13:12:33;99.97;;;93.43;;
44062;SDS011;29727;47.606;19.130;2022-08-11T13:17:46;102.47;;;96.00;;
44062;SDS011;29727;47.606;19.130;2022-08-11T13:20:15;104.40;;;97.80;;
44062;SDS011;29727;47.606;19.130;2022-08-11T13:22:44;101.32;;;94.82;;
44062;SDS011;29727;47.606;19.130;2022-08-11T13:25:14;101.22;;;95.28;;
44062;SDS011;29727;47.606;19.130;2022-08-11T13:27:42;106.07;;;99.63;;
44062;SDS011;29727;47.606;19.130;2022-08-11T13:30:09;104.47;;;97.93;;
44062;SDS011;29727;47.606;19.130;2022-08-11T13:32:55;103.30;;;97.38;;
44062;SDS011;29727;47.606;19.130;2022-08-11T13:35:21;101.78;;;95.32;;
44062;SDS011;29727;47.606;19.130;2022-08-11T13:37:47;103.65;;;97.57;;
44062;SDS011;29727;47.606;19.130;2022-08-11T13:40:15;107.10;;;100.72;;
44062;SDS011;29727;47.606;19.130;2022-08-11T13:42:44;104.65;;;98.00;;
44062;SDS011;29727;47.606;19.130;2022-08-11T13:45:10;99.22;;;92.72;;
44062;SDS011;29727;47.606;19.130;2022-08-11T13:47:37;98.18;;;91.88;;
44062;SDS011;29727;47.606;19.130;2022-08-11T13:50:05;111.60;;;102.15;;
44062;SDS011;29727;47.606;19.130;2022-08-11T13:52:32;106.93;;;100.10;;
44062;SDS011;29727;47.606;19.130;2022-08-11T13:55:00;108.85;;;99.47;;
44062;SDS011;29727;47.606;19.130;2022-08-11T13:57:28;107.80;;;100.88;;
44062;SDS011;29727;47.606;19.130;2022-08-11T13:59:57;100.72;;;92.40;;
44062;SDS011;29727;47.606;19.130;2022-08-11T14:02:40;101.20;;;94.68;;
44062;SDS011;29727;47.606;19.130;2022-08-11T14:05:09;104.03;;;97.32;;
44062;SDS011;29727;47.606;19.130;2022-08-11T14:07:49;106.85;;;100.70;;
44062;SDS011;29727;47.606;19.130;2022-08-11T14:10:20;101.85;;;95.38;;
44062;SDS011;29727;47.606;19.130;2022-08-11T14:12:55;98.72;;;92.78;;
44062;SDS011;29727;47.606;19.130;2022-08-11T14:15:45;101.85;;;95.50;;
44062;SDS011;29727;47.606;19.130;2022-08-11T14:18:17;102.50;;;96.05;;
44062;SDS011;29727;47.606;19.130;2022-08-11T14:20:53;100.68;;;93.93;;
44062;SDS011;29727;47.606;19.130;2022-08-11T14:23:40;101.57;;;95.85;;
44062;SDS011;29727;47.606;19.130;2022-08-11T14:26:09;106.07;;;99.15;;
44062;SDS011;29727;47.606;19.130;2022-08-11T14:28:47;102.47;;;96.43;;
44062;SDS011;29727;47.606;19.130;2022-08-11T14:31:17;108.55;;;102.13;;
44062;SDS011;29727;47.606;19.130;2022-08-11T14:33:43;98.95;;;93.03;;
44062;SDS011;29727;47.606;19.130;2022-08-11T14:36:11;108.57;;;101.70;;
44062;SDS011;29727;47.606;19.130;2022-08-11T14:38:37;104.68;;;98.65;;
44062;SDS011;29727;47.606;19.130;2022-08-11T14:41:04;104.18;;;98.22;;
44062;SDS011;29727;47.606;19.130;2022-08-11T14:43:51;105.72;;;99.38;;
44062;SDS011;29727;47.606;19.130;2022-08-11T14:46:38;104.05;;;97.85;;
44062;SDS011;29727;47.606;19.130;2022-08-11T14:49:23;105.95;;;99.15;;
44062;SDS011;29727;47.606;19.130;2022-08-11T14:51:50;110.57;;;103.43;;
44062;SDS011;29727;47.606;19.130;2022-08-11T14:54:21;111.20;;;104.15;;
44062;SDS011;29727;47.606;19.130;2022-08-11T14:57:11;101.47;;;95.40;;
44062;SDS011;29727;47.606;19.130;2022-08-11T14:59:37;104.25;;;97.85;;
44062;SDS011;29727;47.606;19.130;2022-08-11T15:02:04;99.60;;;93.47;;
44062;SDS011;29727;47.606;19.130;2022-08-11T15:04:49;97.05;;;91.28;;
44062;SDS011;29727;47.606;19.130;2022-08-11T15:07:15;108.90;;;102.00;;
44062;SDS011;29727;47.606;19.130;2022-08-11T15:09:42;101.80;;;95.78;;
44062;SDS011;29727;47.606;19.130;2022-08-11T15:12:09;102.75;;;95.95;;
44062;SDS011;29727;47.606;19.130;2022-08-11T15:14:43;94.30;;;88.50;;
44062;SDS011;29727;47.606;19.130;2022-08-11T15:17:29;110.18;;;103.70;;
44062;SDS011;29727;47.606;19.130;2022-08-11T15:19:58;107.05;;;100.50;;
44062;SDS011;29727;47.606;19.130;2022-08-11T15:22:47;108.90;;;102.57;;
44062;SDS011;29727;47.606;19.130;2022-08-11T15:25:32;104.88;;;98.45;;
44062;SDS011;29727;47.606;19.130;2022-08-11T15:28:00;106.00;;;100.15;;
44062;SDS011;29727;47.606;19.130;2022-08-11T15:30:46;112.03;;;104.88;;
44062;SDS011;29727;47.606;19.130;2022-08-11T15:33:36;105.47;;;98.80;;
44062;SDS011;29727;47.606;19.130;2022-08-11T15:36:23;104.15;;;98.18;;
44062;SDS011;29727;47.606;19.130;2022-08-11T15:39:15;103.97;;;97.60;;
44062;SDS011;29727;47.606;19.130;2022-08-11T15:41:50;104.85;;;98.68;;
44062;SDS011;29727;47.606;19.130;2022-08-11T15:44:40;115.35;;;105.03;;
44062;SDS011;29727;47.606;19.130;2022-08-11T15:47:26;111.22;;;104.63;;
44062;SDS011;29727;47.606;19.130;2022-08-11T15:49:57;119.88;;;110.25;;
44062;SDS011;29727;47.606;19.130;2022-08-11T15:52:28;112.35;;;105.63;;
44062;SDS011;29727;47.606;19.130;2022-08-11T15:54:56;111.70;;;104.35;;
44062;SDS011;29727;47.606;19.130;2022-08-11T15:57:26;111.60;;;104.78;;
44062;SDS011;29727;47.606;19.130;2022-08-11T16:00:12;110.07;;;103.50;;
44062;SDS011;29727;47.606;19.130;2022-08-11T16:02:58;107.28;;;100.40;;
44062;SDS011;29727;47.606;19.130;2022-08-11T16:05:43;114.28;;;107.22;;
44062;SDS011;29727;47.606;19.130;2022-08-11T16:08:11;103.53;;;97.38;;
44062;SDS011;29727;47.606;19.130;2022-08-11T16:10:41;111.13;;;104.10;;
44062;SDS011;29727;47.606;19.130;2022-08-11T16:13:07;107.85;;;100.03;;
44062;SDS011;29727;47.606;19.130;2022-08-11T16:15:37;110.95;;;103.05;;
44062;SDS011;29727;47.606;19.130;2022-08-11T16:18:44;112.55;;;105.57;;
44062;SDS011;29727;47.606;19.130;2022-08-11T16:21:21;103.28;;;96.90;;
44062;SDS011;29727;47.606;19.130;2022-08-11T16:23:51;108.22;;;100.95;;
44062;SDS011;29727;47.606;19.130;2022-08-11T16:26:20;115.05;;;107.43;;
44062;SDS011;29727;47.606;19.130;2022-08-11T16:28:51;111.93;;;103.57;;
44062;SDS011;29727;47.606;19.130;2022-08-11T16:31:20;110.95;;;103.63;;
44062;SDS011;29727;47.606;19.130;2022-08-11T16:33:46;111.10;;;103.10;;
44062;SDS011;29727;47.606;19.130;2022-08-11T16:36:13;109.78;;;102.63;;
44062;SDS011;29727;47.606;19.130;2022-08-11T16:38:58;108.22;;;101.30;;
44062;SDS011;29727;47.606;19.130;2022-08-11T16:41:26;116.00;;;108.78;;
44062;SDS011;29727;47.606;19.130;2022-08-11T16:44:15;105.72;;;98.82;;
44062;SDS011;29727;47.606;19.130;2022-08-11T16:47:01;104.97;;;98.20;;
44062;SDS011;29727;47.606;19.130;2022-08-11T16:49:37;116.75;;;109.72;;
44062;SDS011;29727;47.606;19.130;2022-08-11T16:52:07;111.45;;;104.22;;
44062;SDS011;29727;47.606;19.130;2022-08-11T16:54:36;111.20;;;103.95;;
44062;SDS011;29727;47.606;19.130;2022-08-11T16:57:04;111.68;;;104.38;;
44062;SDS011;29727;47.606;19.130;2022-08-11T16:59:52;107.15;;;100.60;;
44062;SDS011;29727;47.606;19.130;2022-08-11T17:02:21;103.97;;;97.13;;
44062;SDS011;29727;47.606;19.130;2022-08-11T17:05:27;103.65;;;97.68;;
44062;SDS011;29727;47.606;19.130;2022-08-11T17:08:19;97.05;;;91.35;;
44062;SDS011;29727;47.606;19.130;2022-08-11T17:11:28;106.90;;;100.93;;
44062;SDS011;29727;47.606;19.130;2022-08-11T17:14:20;107.95;;;101.80;;
44062;SDS011;29727;47.606;19.130;2022-08-11T17:16:49;111.85;;;105.20;;
44062;SDS011;29727;47.606;19.130;2022-08-11T17:19:26;109.18;;;102.45;;
44062;SDS011;29727;47.606;19.130;2022-08-11T17:21:54;111.63;;;105.32;;
44062;SDS011;29727;47.606;19.130;2022-08-11T17:24:40;115.50;;;108.72;;
44062;SDS011;29727;47.606;19.130;2022-08-11T17:27:08;119.80;;;112.90;;
44062;SDS011;29727;47.606;19.130;2022-08-11T17:29:45;115.65;;;108.60;;
44062;SDS011;29727;47.606;19.130;2022-08-11T17:32:15;113.85;;;107.03;;
44062;SDS011;29727;47.606;19.130;2022-08-11T17:35:11;102.82;;;96.40;;
44062;SDS011;29727;47.606;19.130;2022-08-11T17:37:56;105.75;;;99.28;;
44062;SDS011;29727;47.606;19.130;2022-08-11T17:40:53;108.28;;;101.43;;
44062;SDS011;29727;47.606;19.130;2022-08-11T17:43:39;106.28;;;99.82;;
44062;SDS011;29727;47.606;19.130;2022-08-11T17:46:25;98.70;;;92.78;;
44062;SDS011;29727;47.606;19.130;2022-08-11T17:49:10;107.03;;;99.65;;
44062;SDS011;29727;47.606;19.130;2022-08-11T17:51:38;116.13;;;108.78;;
44062;SDS011;29727;47.606;19.130;2022-08-11T17:54:24;110.70;;;103.35;;
44062;SDS011;29727;47.606;19.130;2022-08-11T17:57:10;105.75;;;99.38;;
44062;SDS011;29727;47.606;19.130;2022-08-11T17:59:57;103.47;;;96.95;;
44062;SDS011;29727;47.606;19.130;2022-08-11T18:02:28;108.72;;;101.68;;
44062;SDS011;29727;47.606;19.130;2022-08-11T18:05:12;107.10;;;99.45;;
44062;SDS011;29727;47.606;19.130;2022-08-11T18:07:41;117.35;;;109.50;;
44062;SDS011;29727;47.606;19.130;2022-08-11T18:10:30;104.65;;;97.15;;
44062;SDS011;29727;47.606;19.130;2022-08-11T18:13:18;109.95;;;100.68;;
44062;SDS011;29727;47.606;19.130;2022-08-11T18:16:04;114.10;;;106.45;;
44062;SDS011;29727;47.606;19.130;2022-08-11T18:18:49;114.28;;;106.53;;
44062;SDS011;29727;47.606;19.130;2022-08-11T18:21:34;106.80;;;99.47;;
44062;SDS011;29727;47.606;19.130;2022-08-11T18:24:20;108.28;;;100.32;;
44062;SDS011;29727;47.606;19.130;2022-08-11T18:27:07;107.85;;;100.93;;
44062;SDS011;29727;47.606;19.130;2022-08-11T18:29:54;106.32;;;99.07;;
44062;SDS011;29727;47.606;19.130;2022-08-11T18:32:42;107.65;;;100.43;;
44062;SDS011;29727;47.606;19.130;2022-08-11T18:35:27;104.95;;;98.10;;
44062;SDS011;29727;47.606;19.130;2022-08-11T18:38:12;112.53;;;105.28;;
44062;SDS011;29727;47.606;19.130;2022-08-11T18:40:58;105.47;;;98.13;;
44062;SDS011;29727;47.606;19.130;2022-08-11T18:43:46;110.80;;;103.57;;
44062;SDS011;29727;47.606;19.130;2022-08-11T18:46:32;107.70;;;100.88;;
44062;SDS011;29727;47.606;19.130;2022-08-11T18:49:22;114.85;;;106.97;;
44062;SDS011;29727;47.606;19.130;2022-08-11T18:52:12;111.88;;;103.05;;
44062;SDS011;29727;47.606;19.130;2022-08-11T18:54:58;100.47;;;92.88;;
44062;SDS011;29727;47.606;19.130;2022-08-11T18:57:46;109.63;;;101.38;;
44062;SDS011;29727;47.606;19.130;2022-08-11T19:00:31;98.20;;;90.63;;
44062;SDS011;29727;47.606;19.130;2022-08-11T19:03:18;108.13;;;100.60;;